Time;durP1;ratioP1;P1;durP2;ratioP2;P2;SDS_P1;SDS_P2;PMS_P1;PMS_P2;Temp;Humidity;BMP_temperature;BMP_pressure;BME280_temperature;BME280_humidity;BME280_pressure;Samples;Min_cycle;Max_cycle;Signal;HPM_P1;HPM_P2
2022/12/11 00:01:41;;;;;;;9.45;6.72;;;;;;;19.09;51.03;99311.84;5037400;28;20037;-78
2022/12/11 00:04:09;;;;;;;8.20;7.03;;;;;;;19.08;50.66;99305.66;5035119;28;20050;-80
2022/12/11 00:06:36;;;;;;;10.10;7.40;;;;;;;19.08;50.53;99319.06;5036533;28;20053;-79
2022/12/11 00:09:04;;;;;;;8.15;6.93;;;;;;;19.08;50.28;99316.38;5035133;28;20060;-78
2022/12/11 00:11:32;;;;;;;8.13;7.28;;;;;;;19.07;50.45;99312.00;5036628;28;20041;-78
2022/12/11 00:13:59;;;;;;;11.70;7.20;;;;;;;19.08;50.45;99311.00;5036402;28;20045;-78
2022/12/11 00:16:27;;;;;;;11.48;7.35;;;;;;;19.07;50.42;99314.66;5036880;28;20050;-78
2022/12/11 00:18:54;;;;;;;9.10;7.38;;;;;;;19.08;50.40;99334.28;5036296;28;20053;-78
2022/12/11 00:21:22;;;;;;;8.85;7.00;;;;;;;19.07;50.42;99338.81;5037012;28;20041;-79
2022/12/11 00:23:49;;;;;;;9.52;6.28;;;;;;;19.08;50.66;99342.31;5036251;28;20409;-79
2022/12/11 00:26:17;;;;;;;10.52;7.35;;;;;;;19.07;50.34;99337.97;5035048;28;20068;-79
2022/12/11 00:28:44;;;;;;;9.93;7.10;;;;;;;19.07;50.30;99338.81;5034802;28;20524;-79
2022/12/11 00:31:15;;;;;;;10.30;7.40;;;;;;;19.07;50.37;99346.84;5036854;28;20049;-79
2022/12/11 00:33:45;;;;;;;9.82;6.63;;;;;;;19.05;50.33;99340.84;5036862;28;20053;-79
2022/12/11 00:36:15;;;;;;;9.55;7.57;;;;;;;19.06;50.21;99342.50;5036779;28;20045;-79
2022/12/11 00:38:42;;;;;;;9.23;7.35;;;;;;;19.05;50.04;99340.00;5036801;28;20045;-79
2022/12/11 00:41:11;;;;;;;9.35;6.38;;;;;;;19.06;50.44;99341.66;5035734;28;20049;-79
2022/12/11 00:43:38;;;;;;;8.25;6.68;;;;;;;19.05;50.32;99340.84;5035877;28;20046;-79
2022/12/11 00:46:06;;;;;;;9.68;7.45;;;;;;;19.04;50.37;99336.47;5036474;28;20082;-79
2022/12/11 00:48:33;;;;;;;7.90;6.68;;;;;;;19.05;50.33;99340.00;5035733;28;20053;-79
2022/12/11 00:51:00;;;;;;;9.75;7.47;;;;;;;19.06;50.36;99333.63;5036196;28;20037;-78
2022/12/11 00:53:28;;;;;;;7.65;6.43;;;;;;;19.05;50.28;99323.91;5036492;28;20046;-78
2022/12/11 00:55:55;;;;;;;7.55;6.60;;;;;;;19.05;50.39;99327.44;5035632;28;20409;-79
2022/12/11 00:58:23;;;;;;;9.20;7.15;;;;;;;19.05;50.39;99329.28;5035801;28;20056;-78
2022/12/11 01:00:51;;;;;;;9.73;7.18;;;;;;;19.03;50.54;99332.94;5036123;28;20042;-78
2022/12/11 01:03:19;;;;;;;7.97;6.40;;;;;;;19.05;50.49;99340.00;5036144;28;20045;-78
2022/12/11 01:05:51;;;;;;;8.00;6.97;;;;;;;19.03;50.52;99349.03;5035374;28;20052;-78
2022/12/11 01:08:19;;;;;;;8.07;6.73;;;;;;;19.05;50.49;99356.09;5035869;28;20049;-78
2022/12/11 01:10:47;;;;;;;7.75;6.35;;;;;;;19.03;50.51;99358.91;5033976;28;20045;-78
2022/12/11 01:13:14;;;;;;;9.05;7.07;;;;;;;19.03;50.43;99361.59;5035672;28;20401;-78
2022/12/11 01:15:45;;;;;;;8.65;7.05;;;;;;;19.03;50.50;99357.06;5034402;28;20049;-79
2022/12/11 01:18:14;;;;;;;9.27;6.90;;;;;;;19.03;50.42;99349.03;5035362;28;20050;-79
2022/12/11 01:20:42;;;;;;;7.40;5.82;;;;;;;19.04;50.50;99352.56;5035672;28;20045;-78
2022/12/11 01:23:12;;;;;;;11.27;6.15;;;;;;;19.03;50.51;99353.56;5035409;28;20385;-78
2022/12/11 01:25:40;;;;;;;9.40;6.85;;;;;;;19.03;50.73;99348.19;5035705;28;20068;-79
2022/12/11 01:28:08;;;;;;;8.25;7.40;;;;;;;19.02;50.59;99352.72;5035634;28;20050;-79
2022/12/11 01:30:36;;;;;;;8.40;6.78;;;;;;;19.02;50.31;99342.00;5034885;28;20056;-79
2022/12/11 01:33:03;;;;;;;8.90;6.38;;;;;;;19.02;50.39;99325.06;5035472;28;20052;-79
2022/12/11 01:35:32;;;;;;;7.88;6.45;;;;;;;19.03;50.58;99332.09;5035455;28;20045;-78
2022/12/11 01:38:00;;;;;;;8.80;6.82;;;;;;;19.02;50.65;99331.28;5034880;28;20048;-78
2022/12/11 01:40:28;;;;;;;8.23;6.80;;;;;;;19.02;50.55;99330.44;5035089;28;20390;-78
2022/12/11 01:42:56;;;;;;;8.85;6.88;;;;;;;19.01;50.47;99332.28;5035657;28;20045;-78
2022/12/11 01:45:31;;;;;;;8.57;7.43;;;;;;;19.02;50.40;99333.13;5034180;28;20383;-79
2022/12/11 01:47:58;;;;;;;8.88;6.50;;;;;;;19.01;50.53;99334.13;5034670;28;20049;-79
2022/12/11 01:50:27;;;;;;;8.77;6.95;;;;;;;19.01;50.67;99326.06;5035928;28;20049;-79
2022/12/11 01:52:55;;;;;;;10.30;7.28;;;;;;;19.00;50.40;99333.28;5034708;28;20033;-79
2022/12/11 01:55:22;;;;;;;8.95;6.18;;;;;;;19.01;50.68;99331.44;5034514;28;20056;-79
2022/12/11 01:57:52;;;;;;;7.75;6.95;;;;;;;19.01;50.28;99345.69;5034727;28;20049;-78
2022/12/11 02:00:20;;;;;;;7.95;6.97;;;;;;;19.01;50.41;99339.50;5034423;28;20410;-78
2022/12/11 02:02:48;;;;;;;8.48;6.78;;;;;;;19.00;50.42;99322.56;5035154;28;20048;-79
2022/12/11 02:05:15;;;;;;;7.78;6.75;;;;;;;19.00;50.50;99321.72;5035118;28;20544;-79
2022/12/11 02:07:47;;;;;;;7.95;6.60;;;;;;;19.00;50.55;99324.41;5035147;28;20045;-80
2022/12/11 02:10:15;;;;;;;8.45;7.55;;;;;;;19.00;50.44;99329.78;5034848;28;20049;-80
2022/12/11 02:12:45;;;;;;;7.28;6.53;;;;;;;19.00;50.51;99333.28;5034725;28;20041;-79
2022/12/11 02:15:34;;;;;;;9.85;6.75;;;;;;;19.00;50.34;99332.47;5034949;28;20075;-79
2022/12/11 02:18:10;;;;;;;8.18;6.55;;;;;;;19.01;50.36;99334.13;5034452;28;20049;-79
2022/12/11 02:21:09;;;;;;;8.23;6.75;;;;;;;19.01;50.49;99328.75;5034372;28;20052;-79
2022/12/11 02:24:05;;;;;;;7.32;6.47;;;;;;;18.99;50.32;99325.41;5032950;28;20049;-79
2022/12/11 02:26:50;;;;;;;7.55;6.70;;;;;;;19.00;50.32;99329.78;5035165;28;20042;-79
2022/12/11 02:29:25;;;;;;;7.50;6.35;;;;;;;18.99;50.31;99315.50;5034382;28;20060;-79
2022/12/11 02:32:09;;;;;;;9.27;6.88;;;;;;;19.00;50.41;99316.38;5034229;28;20057;-79
2022/12/11 02:34:56;;;;;;;8.73;5.82;;;;;;;18.99;50.32;99314.66;5034722;28;20045;-79
2022/12/11 02:37:28;;;;;;;8.90;7.00;;;;;;;18.99;50.36;99320.03;5037233;28;20041;-79
2022/12/11 02:39:56;;;;;;;7.70;6.45;;;;;;;18.98;50.33;99321.88;5037220;28;20048;-79
2022/12/11 02:42:28;;;;;;;7.30;6.30;;;;;;;19.00;50.33;99321.72;5036242;28;20061;-79
2022/12/11 02:44:59;;;;;;;8.48;7.00;;;;;;;18.99;50.36;99325.41;5035189;28;20072;-79
2022/12/11 02:47:30;;;;;;;7.13;6.03;;;;;;;18.99;50.56;99311.97;5034250;28;20053;-79
2022/12/11 02:50:01;;;;;;;7.32;6.38;;;;;;;18.99;50.37;99301.25;5033893;28;20056;-79
2022/12/11 02:52:31;;;;;;;8.85;6.60;;;;;;;18.99;50.34;99298.56;5032282;28;20505;-79
2022/12/11 02:55:01;;;;;;;7.75;6.40;;;;;;;18.98;50.47;99304.94;5033273;28;20049;-78
2022/12/11 02:57:50;;;;;;;7.10;6.18;;;;;;;18.98;50.26;99313.00;5031274;28;20045;-78
2022/12/11 03:00:18;;;;;;;6.80;6.10;;;;;;;18.98;50.29;99313.84;5034057;28;20053;-79
2022/12/11 03:02:45;;;;;;;6.43;5.70;;;;;;;18.98;50.28;99308.47;5034312;28;20042;-80
2022/12/11 03:05:14;;;;;;;7.20;6.22;;;;;;;18.98;50.29;99310.31;5033589;28;20045;-79
2022/12/11 03:07:43;;;;;;;9.07;6.10;;;;;;;18.98;50.39;99304.94;5033451;28;20489;-79
2022/12/11 03:10:14;;;;;;;7.65;6.68;;;;;;;18.98;50.33;99311.16;5034192;28;20457;-79
2022/12/11 03:12:46;;;;;;;8.65;5.97;;;;;;;18.98;50.32;99307.63;5033435;28;20038;-79
2022/12/11 03:15:22;;;;;;;7.18;5.97;;;;;;;18.97;50.34;99308.66;5033980;28;20397;-79
2022/12/11 03:18:08;;;;;;;7.00;6.20;;;;;;;18.97;50.36;99301.44;5034154;28;20049;-79
2022/12/11 03:20:44;;;;;;;7.43;6.15;;;;;;;18.98;50.34;99313.00;5033911;28;20056;-78
2022/12/11 03:23:20;;;;;;;7.32;6.35;;;;;;;18.97;50.17;99314.84;5033876;28;20045;-78
2022/12/11 03:25:55;;;;;;;6.60;5.88;;;;;;;18.97;50.14;99322.06;5033692;28;20057;-79
2022/12/11 03:28:45;;;;;;;7.95;6.18;;;;;;;18.98;50.21;99326.41;5034107;28;20049;-78
2022/12/11 03:31:24;;;;;;;6.45;5.82;;;;;;;18.97;50.34;99322.06;5033770;28;20061;-78
2022/12/11 03:33:56;;;;;;;10.07;6.68;;;;;;;18.97;50.49;99322.88;5033763;28;20041;-78
2022/12/11 03:36:29;;;;;;;8.52;6.32;;;;;;;18.97;50.37;99316.69;5033938;28;20052;-78
2022/12/11 03:39:01;;;;;;;7.82;6.28;;;;;;;18.98;50.33;99331.78;5033460;28;20050;-78
2022/12/11 03:41:31;;;;;;;11.18;5.88;;;;;;;18.97;50.46;99333.63;5032979;28;20061;-78
2022/12/11 03:43:59;;;;;;;6.60;5.85;;;;;;;18.96;50.26;99334.63;5033679;28;20048;-78
2022/12/11 03:46:35;;;;;;;9.23;6.30;;;;;;;18.98;50.35;99345.19;5033615;28;20045;-78
2022/12/11 03:49:09;;;;;;;7.32;6.53;;;;;;;18.97;50.36;99340.81;5033907;28;20053;-78
2022/12/11 03:51:37;;;;;;;7.25;6.35;;;;;;;18.97;50.32;99327.41;5033623;28;20068;-78
2022/12/11 03:54:06;;;;;;;6.85;6.13;;;;;;;18.97;50.36;99316.69;5032937;28;20037;-79
2022/12/11 03:56:37;;;;;;;7.25;5.93;;;;;;;18.97;50.28;99312.16;5032912;28;20405;-79
2022/12/11 03:59:04;;;;;;;7.75;6.43;;;;;;;18.97;50.26;99308.66;5033790;28;20045;-79
2022/12/11 04:01:31;;;;;;;7.13;5.80;;;;;;;18.97;50.33;99308.66;5032975;28;20053;-78
2022/12/11 04:03:59;;;;;;;6.88;5.97;;;;;;;18.97;50.39;99314.84;5031494;28;20049;-78
2022/12/11 04:06:26;;;;;;;6.97;6.20;;;;;;;18.97;50.40;99314.00;5033553;28;20046;-78
2022/12/11 04:08:54;;;;;;;6.40;5.65;;;;;;;18.97;50.52;99322.06;5034671;28;20045;-78
2022/12/11 04:11:34;;;;;;;7.55;6.43;;;;;;;18.96;50.29;99321.22;5037069;28;20041;-78
2022/12/11 04:16:54;;;;;;;8.35;6.65;;;;;;;18.97;50.26;99319.38;5036723;28;20049;-78
2022/12/11 04:25:00;;;;;;;7.22;5.85;;;;;;;18.97;50.56;99322.88;5036329;28;20397;-79
2022/12/11 04:30:16;;;;;;;7.18;6.25;;;;;;;18.96;50.31;99342.66;5036396;28;20049;-79
2022/12/11 04:32:44;;;;;;;6.45;5.65;;;;;;;18.96;50.30;99342.66;5036345;28;20089;-78
2022/12/11 04:35:12;;;;;;;6.60;5.90;;;;;;;18.95;50.30;99345.50;5036773;28;20397;-78
2022/12/11 04:37:39;;;;;;;6.85;6.03;;;;;;;18.95;50.30;99338.28;5036022;28;20045;-79
2022/12/11 04:40:11;;;;;;;7.60;6.68;;;;;;;18.95;50.35;99330.25;5018437;28;20061;-80
2022/12/11 04:42:38;;;;;;;7.15;6.15;;;;;;;18.95;50.37;99335.59;5035425;28;20355;-79
2022/12/11 04:45:07;;;;;;;6.78;6.00;;;;;;;18.95;50.23;99332.94;5036673;28;20049;-79
2022/12/11 04:47:37;;;;;;;8.88;6.40;;;;;;;18.95;50.33;99332.94;5035902;28;20493;-80
2022/12/11 04:50:07;;;;;;;7.47;6.43;;;;;;;18.94;50.11;99336.63;5035763;28;20054;-79
2022/12/11 04:52:34;;;;;;;7.68;6.72;;;;;;;18.94;50.22;99333.94;5034409;28;20049;-79
2022/12/11 04:55:03;;;;;;;8.38;6.93;;;;;;;18.95;50.19;99335.59;5035714;28;20052;-81
2022/12/11 04:57:31;;;;;;;7.80;6.60;;;;;;;18.95;50.25;99337.47;5035668;28;20049;-80
2022/12/11 04:59:58;;;;;;;7.70;5.85;;;;;;;18.94;50.26;99333.94;5036159;28;20052;-79
2022/12/11 05:02:26;;;;;;;6.95;6.00;;;;;;;18.95;50.40;99332.94;5035930;28;20436;-79
2022/12/11 05:04:54;;;;;;;7.38;6.30;;;;;;;18.95;50.20;99340.13;5034432;28;20056;-79
2022/12/11 05:07:21;;;;;;;7.13;6.22;;;;;;;18.95;50.29;99335.59;5035772;28;20072;-79
2022/12/11 05:09:48;;;;;;;7.38;6.43;;;;;;;18.95;50.30;99326.72;5035443;28;20056;-80
2022/12/11 05:12:16;;;;;;;6.75;6.07;;;;;;;18.96;50.48;99333.78;5036194;28;20045;-80
2022/12/11 05:14:43;;;;;;;7.22;6.35;;;;;;;18.95;50.24;99340.13;5035255;28;20050;-80
2022/12/11 05:17:10;;;;;;;6.80;6.10;;;;;;;18.95;50.39;99345.50;5035288;28;20041;-80
2022/12/11 05:19:38;;;;;;;8.80;6.35;;;;;;;18.96;50.28;99339.16;5035506;28;20056;-80
2022/12/11 05:22:05;;;;;;;7.18;5.95;;;;;;;18.96;50.26;99341.84;5035161;28;20054;-79
2022/12/11 05:24:33;;;;;;;7.85;6.07;;;;;;;18.96;50.33;99352.56;5035178;28;20485;-79
2022/12/11 05:27:00;;;;;;;7.30;6.38;;;;;;;18.95;50.33;99350.88;5034184;28;20469;-79
2022/12/11 05:29:27;;;;;;;8.07;5.57;;;;;;;18.96;50.38;99355.25;5035579;28;20052;-79
2022/12/11 05:31:55;;;;;;;6.65;5.47;;;;;;;18.95;50.26;99351.69;5035518;28;20049;-79
2022/12/11 05:34:22;;;;;;;7.28;6.18;;;;;;;18.95;50.28;99354.38;5035394;28;20042;-79
2022/12/11 05:36:49;;;;;;;6.80;5.70;;;;;;;18.95;50.26;99345.50;5035308;28;20052;-78
2022/12/11 05:39:17;;;;;;;7.22;6.13;;;;;;;18.94;50.13;99367.97;5034871;28;20068;-79
2022/12/11 05:41:44;;;;;;;8.07;6.50;;;;;;;18.94;50.13;99360.75;5034792;28;20071;-79
2022/12/11 05:44:12;;;;;;;6.40;5.00;;;;;;;18.95;50.29;99361.59;5034769;28;20037;-79
2022/12/11 05:46:39;;;;;;;7.15;5.72;;;;;;;18.94;50.27;99360.75;5034713;28;20042;-79
2022/12/11 05:49:09;;;;;;;6.82;5.63;;;;;;;18.95;50.18;99366.97;5035211;28;20489;-78
2022/12/11 05:51:38;;;;;;;6.85;5.65;;;;;;;18.94;50.02;99362.59;5034516;28;20045;-79
2022/12/11 05:54:06;;;;;;;7.25;6.55;;;;;;;18.95;50.09;99358.91;5033203;28;20049;-79
2022/12/11 05:56:34;;;;;;;6.80;5.75;;;;;;;18.94;50.11;99366.13;5034843;28;20397;-79
2022/12/11 05:59:02;;;;;;;7.72;6.15;;;;;;;18.95;50.15;99369.63;5035051;28;20045;-79
2022/12/11 06:01:39;;;;;;;6.32;5.68;;;;;;;18.94;49.90;99376.84;5035012;28;20052;-78
2022/12/11 06:04:09;;;;;;;8.38;6.25;;;;;;;18.93;50.01;99377.84;5034938;28;20052;-81
2022/12/11 06:06:37;;;;;;;6.85;6.03;;;;;;;18.94;49.68;99381.38;5034220;28;20056;-80
2022/12/11 06:09:05;;;;;;;7.80;6.45;;;;;;;18.94;49.79;99386.75;5034839;28;20371;-79
2022/12/11 06:11:33;;;;;;;8.13;6.80;;;;;;;18.94;49.65;99384.88;5034271;28;20048;-80
2022/12/11 06:14:02;;;;;;;9.30;6.50;;;;;;;18.93;49.84;99390.44;5034722;28;20045;-80
2022/12/11 06:16:30;;;;;;;7.55;6.38;;;;;;;18.94;49.49;99397.47;5034221;28;20050;-80
2022/12/11 06:18:58;;;;;;;7.40;6.18;;;;;;;18.92;49.57;99388.72;5034137;28;20052;-80
2022/12/11 06:21:28;;;;;;;7.20;5.88;;;;;;;18.91;49.55;99401.31;5034001;28;20049;-80
2022/12/11 06:23:58;;;;;;;7.22;5.80;;;;;;;18.91;49.50;99400.47;5034850;28;20049;-80
2022/12/11 06:26:26;;;;;;;8.30;6.47;;;;;;;18.89;49.36;99411.38;5033401;28;20409;-79
2022/12/11 06:28:53;;;;;;;6.93;5.95;;;;;;;18.90;49.39;99409.53;5034774;28;20041;-80
2022/12/11 06:31:21;;;;;;;8.63;6.63;;;;;;;18.89;49.69;99416.72;5033909;28;20108;-80
2022/12/11 06:33:48;;;;;;;7.28;5.82;;;;;;;18.88;49.41;99415.06;5033735;28;20049;-79
2022/12/11 06:36:18;;;;;;;7.20;6.10;;;;;;;18.89;49.56;99415.91;5034340;28;20064;-79
2022/12/11 06:38:46;;;;;;;7.43;5.97;;;;;;;18.90;49.32;99418.41;5033767;28;20049;-80
2022/12/11 06:41:14;;;;;;;7.15;6.38;;;;;;;18.90;49.05;99417.56;5033852;28;20054;-79
2022/12/11 06:43:42;;;;;;;8.52;7.07;;;;;;;18.89;49.21;99415.91;5034522;28;20041;-79
2022/12/11 06:46:12;;;;;;;8.23;6.78;;;;;;;18.90;49.29;99414.88;5033654;28;20046;-78
2022/12/11 06:48:41;;;;;;;7.40;6.47;;;;;;;18.89;49.47;99418.56;5034314;28;20477;-78
2022/12/11 06:51:11;;;;;;;7.03;5.68;;;;;;;18.90;49.35;99422.94;5034183;28;20048;-79
2022/12/11 06:53:39;;;;;;;6.97;6.10;;;;;;;18.91;49.40;99429.97;5034341;28;20053;-79
2022/12/11 06:56:10;;;;;;;7.80;6.28;;;;;;;18.90;49.30;99433.66;5033546;28;20049;-79
2022/12/11 06:58:38;;;;;;;6.65;5.88;;;;;;;18.89;49.25;99427.47;5032289;28;20417;-79
2022/12/11 07:01:26;;;;;;;7.70;6.07;;;;;;;18.89;49.04;99431.97;5034034;28;20053;-79
2022/12/11 07:03:57;;;;;;;8.93;6.93;;;;;;;18.89;48.94;99440.03;5033327;28;20049;-79
2022/12/11 07:06:27;;;;;;;7.95;6.05;;;;;;;18.88;49.08;99430.28;5034330;28;20060;-78
2022/12/11 07:08:55;;;;;;;8.20;6.28;;;;;;;18.90;49.01;99444.38;5034010;28;20049;-78
2022/12/11 07:11:22;;;;;;;7.53;6.18;;;;;;;18.89;49.01;99464.16;5033479;28;20069;-79
2022/12/11 07:13:50;;;;;;;7.70;6.28;;;;;;;18.88;48.93;99463.31;5033860;28;20053;-78
2022/12/11 07:16:18;;;;;;;8.25;6.40;;;;;;;18.87;48.66;99453.56;5033382;28;20057;-78
2022/12/11 07:18:48;;;;;;;7.55;6.75;;;;;;;18.88;48.83;99462.47;5033458;28;20052;-79
2022/12/11 07:21:16;;;;;;;7.43;6.55;;;;;;;18.87;48.84;99475.03;5034099;28;20041;-79
2022/12/11 07:23:44;;;;;;;7.55;6.15;;;;;;;18.87;49.04;99467.00;5033289;28;20496;-78
2022/12/11 07:26:14;;;;;;;8.00;5.80;;;;;;;18.87;48.95;99477.72;5033509;28;20207;-79
2022/12/11 07:28:42;;;;;;;8.50;6.65;;;;;;;18.86;48.83;99478.72;5034019;28;20052;-79
2022/12/11 07:31:12;;;;;;;9.60;6.85;;;;;;;18.86;48.56;99478.72;5033225;28;20504;-78
2022/12/11 07:33:40;;;;;;;7.97;6.55;;;;;;;18.86;48.56;99483.25;5033672;28;20045;-79
2022/12/11 07:36:09;;;;;;;6.85;5.85;;;;;;;18.86;48.64;99483.25;5033349;28;20371;-79
2022/12/11 07:38:37;;;;;;;8.02;6.40;;;;;;;18.86;48.72;99488.63;5033144;28;20046;-79
2022/12/11 07:41:07;;;;;;;7.20;5.80;;;;;;;18.86;48.43;99504.69;5033412;28;20490;-78
2022/12/11 07:43:35;;;;;;;8.20;6.30;;;;;;;18.85;48.34;99511.91;5034446;28;20041;-78
2022/12/11 07:46:06;;;;;;;10.75;6.38;;;;;;;18.84;48.58;99522.78;5035682;28;20048;-79
2022/12/11 07:48:35;;;;;;;8.35;6.38;;;;;;;18.85;48.37;99524.47;5036918;28;20050;-79
2022/12/11 07:51:08;;;;;;;8.20;6.97;;;;;;;18.84;48.59;99525.47;5037421;28;20056;-78
2022/12/11 07:53:36;;;;;;;9.05;6.88;;;;;;;18.84;48.24;99529.00;5037206;28;20041;-78
2022/12/11 07:56:03;;;;;;;6.43;5.68;;;;;;;18.84;48.19;99539.72;5037327;28;20362;-78
2022/12/11 07:58:31;;;;;;;8.35;6.18;;;;;;;18.84;48.24;99552.28;5036227;28;20049;-78
2022/12/11 08:00:58;;;;;;;7.28;5.55;;;;;;;18.84;48.59;99563.00;5037939;28;20064;-78
2022/12/11 08:03:26;;;;;;;7.50;6.40;;;;;;;18.85;48.12;99567.38;5037503;28;20050;-78
2022/12/11 08:05:53;;;;;;;8.02;6.28;;;;;;;18.84;48.35;99568.34;5037146;28;20056;-77
2022/12/11 08:08:20;;;;;;;7.25;6.30;;;;;;;18.85;48.67;99567.38;5037849;28;20049;-77
2022/12/11 08:10:48;;;;;;;6.03;5.18;;;;;;;18.85;48.91;99575.44;5037769;28;20053;-77
2022/12/11 08:13:15;;;;;;;8.20;6.18;;;;;;;18.85;49.10;99584.31;5037185;28;20401;-77
2022/12/11 08:15:42;;;;;;;10.77;9.38;;;;;;;18.78;45.36;99578.72;5036704;28;20048;-78
2022/12/11 08:18:10;;;;;;;9.07;7.85;;;;;;;18.78;46.48;99588.63;5037091;28;20049;-78
2022/12/11 08:20:38;;;;;;;7.32;6.20;;;;;;;18.78;48.53;99584.09;5037088;28;20045;-77
2022/12/11 08:23:05;;;;;;;7.95;5.95;;;;;;;18.79;48.98;99584.94;5037795;28;20045;-76
2022/12/11 08:25:32;;;;;;;7.97;6.38;;;;;;;18.80;48.85;99593.81;5037325;28;20053;-76
2022/12/11 08:28:00;;;;;;;9.07;6.32;;;;;;;18.79;48.98;99595.66;5039104;28;20052;-76
2022/12/11 08:30:27;;;;;;;7.30;6.10;;;;;;;18.81;49.06;99595.50;5038374;28;20049;-77
2022/12/11 08:32:54;;;;;;;6.25;5.32;;;;;;;18.81;48.98;99604.41;5038792;28;20046;-77
2022/12/11 08:35:22;;;;;;;6.38;5.65;;;;;;;18.81;49.23;99599.03;5036953;28;20041;-77
2022/12/11 08:37:49;;;;;;;9.85;8.07;;;;;;;18.81;47.75;99598.19;5037032;28;20045;-80
2022/12/11 08:40:17;;;;;;;10.88;8.70;;;;;;;18.80;46.31;99593.81;5036651;28;20477;-77
2022/12/11 08:42:44;;;;;;;9.38;6.57;;;;;;;18.80;47.63;99599.16;5035163;28;20069;-84
2022/12/11 08:45:11;;;;;;;9.40;8.00;;;;;;;18.78;46.43;99593.97;5036264;28;20060;-82
2022/12/11 08:47:40;;;;;;;9.80;7.38;;;;;;;18.79;47.04;99598.34;5036488;28;20053;-80
2022/12/11 08:50:08;;;;;;;13.25;6.93;;;;;;;18.80;47.58;99600.03;5036947;28;20401;-83
2022/12/11 08:52:35;;;;;;;9.45;6.93;;;;;;;18.82;47.78;99610.59;5037595;28;20049;-81
2022/12/11 08:55:03;;;;;;;10.38;6.90;;;;;;;18.83;48.19;99606.91;5035946;28;20042;-80
2022/12/11 08:57:30;;;;;;;9.45;6.38;;;;;;;18.83;47.71;99607.75;5036650;28;20054;-77
2022/12/11 08:59:58;;;;;;;12.25;6.90;;;;;;;18.84;47.33;99609.44;5035791;28;20050;-79
2022/12/11 09:02:25;;;;;;;8.90;6.38;;;;;;;18.84;47.28;99614.81;5036742;28;20057;-80
2022/12/11 09:04:52;;;;;;;8.80;6.88;;;;;;;18.85;47.42;99612.97;5036848;28;20041;-80
2022/12/11 09:07:20;;;;;;;8.43;5.90;;;;;;;18.84;47.24;99627.34;5036555;28;20572;-79
2022/12/11 09:09:47;;;;;;;9.45;6.68;;;;;;;18.85;47.44;99619.16;5036494;28;20362;-79
2022/12/11 09:12:14;;;;;;;10.38;7.38;;;;;;;18.85;47.28;99629.88;5036226;28;20056;-79
2022/12/11 09:14:42;;;;;;;7.78;6.25;;;;;;;18.86;47.45;99626.19;5036414;28;20046;-78
2022/12/11 09:17:09;;;;;;;7.10;6.40;;;;;;;18.86;47.09;99631.56;5036266;28;20049;-79
2022/12/11 09:19:37;;;;;;;7.32;6.38;;;;;;;18.87;47.44;99635.09;5036188;28;20049;-77
2022/12/11 09:22:04;;;;;;;8.52;5.85;;;;;;;18.87;47.49;99643.13;5035196;28;20049;-81
2022/12/11 09:24:31;;;;;;;6.43;5.78;;;;;;;18.87;48.13;99638.59;5035950;28;20509;-79
2022/12/11 09:26:59;;;;;;;8.25;6.13;;;;;;;18.86;47.48;99647.66;5035793;28;20409;-78
2022/12/11 09:29:26;;;;;;;7.30;6.13;;;;;;;18.88;47.73;99645.69;5035818;28;20049;-77
2022/12/11 09:31:53;;;;;;;8.70;6.07;;;;;;;18.87;48.19;99646.66;5036765;28;20045;-87
2022/12/11 09:34:21;;;;;;;6.82;6.20;;;;;;;18.89;48.11;99652.72;5036513;28;20485;-78
2022/12/11 09:36:55;;;;;;;7.30;6.13;;;;;;;18.89;48.32;99657.25;5036087;28;20049;-78
2022/12/11 09:39:23;;;;;;;8.43;6.78;;;;;;;18.90;48.39;99650.88;5035847;28;20057;-78
2022/12/11 09:42:05;;;;;;;9.43;6.70;;;;;;;18.89;47.79;99658.06;5035952;28;20432;-77
2022/12/11 09:44:40;;;;;;;8.02;6.32;;;;;;;18.89;47.99;99660.75;5034965;28;20052;-77
2022/12/11 09:47:32;;;;;;;10.45;6.53;;;;;;;18.90;48.27;99658.91;5015876;28;20049;-78
2022/12/11 09:50:08;;;;;;;11.43;7.35;;;;;;;18.89;48.19;99662.59;5015747;28;20072;-77
2022/12/11 09:52:47;;;;;;;7.97;5.95;;;;;;;18.88;48.40;99661.75;5028220;28;20390;-81
2022/12/11 09:55:24;;;;;;;9.18;5.95;;;;;;;18.89;48.11;99667.97;5034114;28;20057;-81
2022/12/11 09:58:04;;;;;;;8.88;6.95;;;;;;;18.89;47.88;99665.28;5035541;28;20049;-81
2022/12/11 10:00:37;;;;;;;12.32;9.45;;;;;;;18.86;46.63;99658.38;5035583;28;20052;-76
2022/12/11 10:03:17;;;;;;;11.73;8.77;;;;;;;18.87;47.77;99660.06;5035221;28;20482;-76
2022/12/11 10:05:51;;;;;;;9.75;7.80;;;;;;;18.87;48.24;99665.41;5036139;28;20056;-76
2022/12/11 10:08:52;;;;;;;9.32;7.93;;;;;;;18.86;48.00;99666.44;5034285;28;20041;-76
2022/12/11 10:11:51;;;;;;;12.52;7.68;;;;;;;18.87;47.67;99656.53;5033759;28;20041;-76
2022/12/11 10:15:13;;;;;;;9.93;8.10;;;;;;;18.86;47.67;99647.66;5032340;28;20049;-77
2022/12/11 10:17:43;;;;;;;11.73;8.13;;;;;;;18.86;47.49;99649.50;5009891;28;20429;-77
2022/12/11 10:20:16;;;;;;;9.95;8.70;;;;;;;18.85;47.56;99650.50;5010400;28;20054;-77
2022/12/11 10:22:44;;;;;;;12.32;9.00;;;;;;;18.85;47.38;99645.16;5012384;28;20066;-77
2022/12/11 10:25:24;;;;;;;11.90;8.32;;;;;;;18.85;47.29;99647.81;5014095;28;20058;-76
2022/12/11 10:27:53;;;;;;;11.82;8.60;;;;;;;18.85;47.15;99648.66;5013233;28;20050;-77
2022/12/11 10:30:36;;;;;;;10.65;8.13;;;;;;;18.83;47.06;99642.59;5012621;28;20046;-76
2022/12/11 10:33:30;;;;;;;12.23;8.43;;;;;;;18.84;47.33;99643.44;5013680;28;20054;-77
2022/12/11 10:35:57;;;;;;;;;;;;;;;18.83;47.20;99642.59;5013486;28;20058;-77
2022/12/11 10:38:35;;;;;;;12.52;8.63;;;;;;;18.82;47.32;99640.94;5013330;28;19922;-76
2022/12/11 10:41:09;;;;;;;9.13;8.02;;;;;;;18.83;47.46;99641.75;5012761;28;20061;-77
2022/12/11 10:43:45;;;;;;;10.10;8.48;;;;;;;18.83;47.06;99641.75;5012789;28;20548;-77
2022/12/11 10:46:24;;;;;;;10.73;7.72;;;;;;;18.83;47.43;99645.28;5013614;28;20071;-77
2022/12/11 10:48:54;;;;;;;10.10;7.50;;;;;;;18.83;47.39;99647.13;5024550;28;20061;-77
2022/12/11 10:51:25;;;;;;;10.43;7.80;;;;;;;18.82;47.01;99645.44;5049253;28;20060;-77
2022/12/11 10:53:57;;;;;;;9.63;7.40;;;;;;;18.82;47.24;99638.25;5034732;28;20143;-77
2022/12/11 10:56:34;;;;;;;12.23;7.85;;;;;;;18.82;47.41;99642.78;5033671;28;20038;-77
2022/12/11 10:59:02;;;;;;;9.45;7.30;;;;;;;18.81;47.20;99647.28;5033566;28;20516;-77
2022/12/11 11:01:31;;;;;;;10.20;7.93;;;;;;;18.82;47.26;99648.13;5033934;28;20053;-77
2022/12/11 11:04:05;;;;;;;9.80;8.13;;;;;;;18.80;47.13;99653.66;5034657;28;20052;-77
2022/12/11 11:06:32;;;;;;;9.05;6.80;;;;;;;18.82;46.97;99648.13;5034652;28;20049;-76
2022/12/11 11:09:02;;;;;;;10.23;7.75;;;;;;;18.80;47.01;99656.34;5034375;28;20053;-76
2022/12/11 11:11:31;;;;;;;9.88;7.10;;;;;;;18.81;47.26;99655.34;5034369;28;20052;-76
2022/12/11 11:14:21;;;;;;;7.38;6.43;;;;;;;18.80;47.28;99655.47;5035071;28;20057;-76
2022/12/11 11:16:53;;;;;;;8.05;7.20;;;;;;;18.81;47.35;99657.19;5034845;28;20045;-76
2022/12/11 11:19:23;;;;;;;8.70;7.23;;;;;;;18.78;47.29;99659.16;5036346;28;20053;-76
2022/12/11 11:21:58;;;;;;;8.68;6.68;;;;;;;18.80;47.44;99660.84;5038249;28;20048;-76
2022/12/11 11:24:37;;;;;;;7.90;7.07;;;;;;;18.80;47.28;99660.84;5038493;28;20060;-77
2022/12/11 11:27:26;;;;;;;8.85;6.53;;;;;;;18.80;47.35;99663.53;5038740;28;20037;-77
2022/12/11 11:29:57;;;;;;;9.20;6.78;;;;;;;18.78;47.18;99661.84;5038058;28;20053;-77
2022/12/11 11:32:37;;;;;;;8.90;6.97;;;;;;;18.78;47.28;99661.84;5037708;28;20045;-77
2022/12/11 11:35:16;;;;;;;7.50;6.70;;;;;;;18.77;47.21;99654.81;5053231;28;20049;-77
2022/12/11 11:37:46;;;;;;;8.38;6.65;;;;;;;18.78;47.13;99656.47;5038735;28;20038;-76
2022/12/11 11:40:27;;;;;;;9.75;7.30;;;;;;;18.77;47.07;99657.50;5038711;28;20076;-77
2022/12/11 11:43:15;;;;;;;7.88;6.40;;;;;;;18.78;47.04;99656.47;5038860;28;20045;-76
2022/12/11 11:45:48;;;;;;;8.20;7.07;;;;;;;18.78;47.21;99661.00;5037561;28;20049;-76
2022/12/11 11:48:32;;;;;;;;;;;;;;;18.78;47.16;99658.31;5038481;28;20052;-76
2022/12/11 11:51:12;;;;;;;6.72;5.75;;;;;;;18.78;47.09;99655.66;5038257;28;19921;-76
2022/12/11 11:53:40;;;;;;;7.70;6.10;;;;;;;18.77;46.72;99662.00;5038103;28;20050;-76
2022/12/11 11:56:13;;;;;;;8.38;6.50;;;;;;;18.76;47.21;99652.28;5038039;28;20049;-77
2022/12/11 11:58:50;;;;;;;6.93;5.68;;;;;;;18.76;47.28;99645.09;5038103;28;20045;-77
2022/12/11 12:01:19;;;;;;;7.47;5.85;;;;;;;18.75;47.07;99659.47;5038714;28;20057;-77